createdAt,value
2017-09-03T00:01:24.686Z,87.80
2017-09-03T00:03:52.957Z,87.80
2017-09-03T00:06:21.223Z,87.80
2017-09-03T00:08:49.519Z,87.80
2017-09-03T00:11:17.763Z,88.00
2017-09-03T00:13:46.020Z,89.20
2017-09-03T00:16:15.145Z,89.30
2017-09-03T00:18:43.386Z,89.20
2017-09-03T00:21:11.667Z,89.00
2017-09-03T00:23:39.938Z,88.90
2017-09-03T00:26:08.171Z,88.90
2017-09-03T00:28:36.439Z,89.00
2017-09-03T00:31:04.838Z,88.90
2017-09-03T00:33:33.102Z,89.20
2017-09-03T00:36:01.339Z,89.10
2017-09-03T00:38:29.679Z,89.60
2017-09-03T00:40:57.973Z,89.60
2017-09-03T00:43:26.231Z,89.80
2017-09-03T00:45:54.487Z,89.60
2017-09-03T00:48:23.939Z,89.40
2017-09-03T00:50:53.421Z,89.30
2017-09-03T00:53:21.652Z,89.60
2017-09-03T00:55:50.406Z,89.40
2017-09-03T00:58:18.685Z,89.50
2017-09-03T01:00:46.901Z,89.80
2017-09-03T01:03:15.154Z,89.60
2017-09-03T01:05:44.046Z,89.40
2017-09-03T01:08:12.311Z,89.60
2017-09-03T01:10:40.534Z,89.40
2017-09-03T01:13:09.355Z,89.60
2017-09-03T01:15:37.654Z,89.50
2017-09-03T01:18:05.894Z,90.00
2017-09-03T01:20:34.209Z,90.00
2017-09-03T01:23:02.445Z,90.00
2017-09-03T01:25:30.684Z,90.10
2017-09-03T01:27:58.946Z,90.00
2017-09-03T01:30:27.220Z,89.80
2017-09-03T01:32:55.454Z,89.60
2017-09-03T01:35:23.694Z,89.90
2017-09-03T01:37:52.004Z,90.10
2017-09-03T01:40:20.261Z,90.00
2017-09-03T01:42:48.557Z,90.30
2017-09-03T01:45:16.818Z,90.20
2017-09-03T01:47:45.290Z,89.90
2017-09-03T01:50:13.578Z,89.40
2017-09-03T01:52:41.839Z,89.50
2017-09-03T01:55:10.091Z,89.80
2017-09-03T01:57:38.351Z,89.80
2017-09-03T02:00:06.597Z,90.00
2017-09-03T02:02:34.871Z,90.00
2017-09-03T02:05:03.098Z,90.00
2017-09-03T02:07:31.358Z,89.60
2017-09-03T02:09:59.637Z,89.30
2017-09-03T02:12:27.864Z,89.00
2017-09-03T02:14:56.206Z,88.70
2017-09-03T02:17:24.445Z,89.00
2017-09-03T02:19:52.702Z,88.60
2017-09-03T02:22:20.981Z,87.40
2017-09-03T02:24:49.249Z,88.70
2017-09-03T02:27:17.483Z,87.40
2017-09-03T02:29:45.750Z,88.30
2017-09-03T02:32:14.865Z,87.70
2017-09-03T02:34:43.117Z,87.40
2017-09-03T02:37:11.404Z,87.30
2017-09-03T02:39:39.665Z,87.50
2017-09-03T02:42:07.909Z,87.50
2017-09-03T02:44:36.177Z,87.00
2017-09-03T02:47:05.014Z,87.10
2017-09-03T02:49:33.274Z,87.50
2017-09-03T02:52:01.543Z,88.60
2017-09-03T02:54:29.789Z,86.90
2017-09-03T02:56:58.046Z,88.10
2017-09-03T02:59:26.412Z,87.30
2017-09-03T03:01:54.666Z,86.40
2017-09-03T03:04:23.158Z,86.30
2017-09-03T03:06:51.506Z,86.40
2017-09-03T03:09:19.763Z,86.30
2017-09-03T03:11:48.004Z,85.50
2017-09-03T03:14:16.254Z,85.50
2017-09-03T03:16:44.493Z,85.80
2017-09-03T03:19:12.757Z,86.10
2017-09-03T03:21:42.388Z,86.50
2017-09-03T03:24:11.397Z,86.20
2017-09-03T03:26:39.638Z,86.20
2017-09-03T03:29:07.935Z,86.50
2017-09-03T03:31:36.155Z,85.90
2017-09-03T03:34:04.422Z,86.30
2017-09-03T03:36:32.674Z,86.50
2017-09-03T03:39:00.930Z,86.60
2017-09-03T03:41:29.195Z,86.40
2017-09-03T03:43:57.477Z,86.20
2017-09-03T03:46:25.749Z,86.30
2017-09-03T03:48:54.017Z,86.20
2017-09-03T03:51:22.275Z,86.30
2017-09-03T03:53:50.517Z,86.10
2017-09-03T03:56:18.769Z,86.60
2017-09-03T03:58:47.005Z,86.90
2017-09-03T04:01:15.260Z,87.70
2017-09-03T04:03:43.491Z,86.60
2017-09-03T04:06:11.745Z,85.50
2017-09-03T04:08:40.002Z,86.00
2017-09-03T04:11:08.256Z,85.90
2017-09-03T04:13:36.533Z,87.00
2017-09-03T04:16:04.762Z,86.90
2017-09-03T04:18:33.007Z,87.10
2017-09-03T04:21:01.286Z,87.40
2017-09-03T04:23:29.506Z,87.10
2017-09-03T04:25:57.783Z,87.40
2017-09-03T04:28:26.029Z,87.10
2017-09-03T04:30:54.296Z,87.00
2017-09-03T04:33:22.557Z,87.20
2017-09-03T04:35:50.825Z,87.10
2017-09-03T04:38:19.061Z,86.80
2017-09-03T04:40:47.318Z,86.60
2017-09-03T04:43:15.542Z,87.00
2017-09-03T04:45:44.345Z,87.40
2017-09-03T04:48:13.535Z,87.40
2017-09-03T04:50:41.776Z,87.20
2017-09-03T04:53:10.039Z,87.20
2017-09-03T04:55:38.318Z,87.00
2017-09-03T04:58:06.562Z,86.80
2017-09-03T05:00:34.799Z,86.10
2017-09-03T05:03:03.057Z,86.50
2017-09-03T05:05:31.300Z,86.30
2017-09-03T05:07:59.554Z,86.20
2017-09-03T05:10:27.797Z,86.30
2017-09-03T05:12:56.053Z,86.60
2017-09-03T05:15:24.315Z,86.80
2017-09-03T05:17:52.550Z,86.90
2017-09-03T05:20:20.814Z,86.70
2017-09-03T05:22:49.056Z,86.50
2017-09-03T05:25:17.285Z,85.80
2017-09-03T05:27:45.563Z,84.70
2017-09-03T05:30:13.797Z,85.50
2017-09-03T05:32:42.777Z,85.80
2017-09-03T05:35:11.047Z,85.80
2017-09-03T05:37:39.332Z,85.80
2017-09-03T05:40:07.586Z,85.60
2017-09-03T05:42:35.846Z,84.40
2017-09-03T05:45:04.106Z,84.60
2017-09-03T05:47:32.341Z,84.40
2017-09-03T05:50:00.609Z,84.30
2017-09-03T05:52:28.865Z,84.00
2017-09-03T05:54:57.097Z,83.60
2017-09-03T05:57:25.380Z,83.50
2017-09-03T05:59:53.598Z,83.20
2017-09-03T06:02:21.859Z,83.30
2017-09-03T06:04:50.133Z,83.00
2017-09-03T06:07:18.350Z,83.40
2017-09-03T06:09:46.610Z,83.00
2017-09-03T06:12:14.859Z,83.00
2017-09-03T06:14:44.034Z,82.80
2017-09-03T06:17:12.264Z,83.60
2017-09-03T06:19:40.534Z,83.90
2017-09-03T06:22:08.805Z,82.70
2017-09-03T06:24:37.031Z,82.30
2017-09-03T06:27:05.850Z,82.10
2017-09-03T06:29:34.102Z,82.40
2017-09-03T06:32:02.396Z,82.10
2017-09-03T06:34:30.690Z,82.50
2017-09-03T06:36:58.933Z,81.70
2017-09-03T06:39:27.190Z,80.90
2017-09-03T06:41:55.439Z,80.40
2017-09-03T06:44:23.698Z,80.60
2017-09-03T06:46:51.969Z,80.40
2017-09-03T06:49:20.254Z,80.40
2017-09-03T06:51:48.487Z,80.50
2017-09-03T06:54:16.851Z,80.00
2017-09-03T06:56:45.090Z,79.50
2017-09-03T06:59:13.322Z,79.50
2017-09-03T07:01:41.683Z,79.60
2017-09-03T07:04:09.960Z,80.00
2017-09-03T07:06:38.197Z,80.50
2017-09-03T07:09:06.434Z,79.30
2017-09-03T07:11:34.692Z,78.80
2017-09-03T07:14:02.936Z,79.40
2017-09-03T07:16:31.204Z,79.50
2017-09-03T07:18:59.430Z,79.90
2017-09-03T07:21:27.807Z,79.80
2017-09-03T07:23:56.043Z,79.30
2017-09-03T07:26:24.296Z,79.40
2017-09-03T07:28:52.542Z,79.80
2017-09-03T07:31:20.832Z,79.30
2017-09-03T07:33:49.065Z,79.90
2017-09-03T07:36:17.334Z,80.20
2017-09-03T07:38:45.586Z,80.40
2017-09-03T07:41:13.830Z,79.60
2017-09-03T07:43:42.080Z,80.30
2017-09-03T07:46:10.603Z,80.40
2017-09-03T07:48:38.856Z,80.40
2017-09-03T07:51:07.094Z,79.10
2017-09-03T07:53:35.379Z,79.80
2017-09-03T07:56:03.778Z,79.50
2017-09-03T07:58:32.034Z,79.40
2017-09-03T08:01:00.292Z,79.30
2017-09-03T08:03:28.537Z,79.60
2017-09-03T08:05:56.805Z,78.50
2017-09-03T08:08:25.026Z,78.20
2017-09-03T08:10:53.284Z,77.90
2017-09-03T08:13:21.522Z,78.30
2017-09-03T08:15:49.770Z,77.30
2017-09-03T08:18:18.046Z,77.50
2017-09-03T08:20:46.293Z,76.70
2017-09-03T08:23:14.558Z,76.50
2017-09-03T08:25:42.827Z,76.70
2017-09-03T08:28:11.085Z,76.80
2017-09-03T08:30:39.512Z,76.30
2017-09-03T08:33:07.845Z,75.00
2017-09-03T08:35:36.097Z,75.00
2017-09-03T08:38:04.375Z,75.40
2017-09-03T08:40:34.299Z,74.00
2017-09-03T08:43:02.572Z,74.30
2017-09-03T08:45:31.368Z,74.50
2017-09-03T08:47:59.640Z,75.50
2017-09-03T08:50:27.939Z,73.90
2017-09-03T08:52:56.214Z,74.30
2017-09-03T08:55:24.486Z,73.40
2017-09-03T08:57:52.746Z,72.90
2017-09-03T09:00:21.026Z,72.30
2017-09-03T09:02:49.291Z,72.40
2017-09-03T09:05:17.574Z,72.10
2017-09-03T09:07:45.842Z,71.60
2017-09-03T09:10:14.139Z,71.20
2017-09-03T09:12:42.432Z,70.20
2017-09-03T09:15:10.733Z,70.10
2017-09-03T09:17:38.990Z,69.80
2017-09-03T09:20:07.268Z,69.50
2017-09-03T09:22:35.612Z,69.30
2017-09-03T09:25:03.989Z,68.20
2017-09-03T09:27:32.246Z,67.40
2017-09-03T09:30:00.508Z,66.70
2017-09-03T09:32:28.857Z,65.70
2017-09-03T09:34:57.215Z,65.50
2017-09-03T09:37:25.438Z,64.40
2017-09-03T09:39:53.724Z,63.20
2017-09-03T09:42:22.187Z,64.20
2017-09-03T09:44:50.447Z,63.80
2017-09-03T09:47:18.842Z,61.80
2017-09-03T09:49:47.977Z,61.20
2017-09-03T09:52:16.305Z,62.70
2017-09-03T09:54:44.566Z,62.00
2017-09-03T09:57:12.842Z,61.50
2017-09-03T09:59:41.163Z,62.10
2017-09-03T10:02:10.072Z,64.20
2017-09-03T10:04:38.365Z,66.10
2017-09-03T10:07:06.611Z,67.00
2017-09-03T10:09:34.881Z,67.20
2017-09-03T10:12:03.152Z,66.90
2017-09-03T10:14:32.453Z,65.80
2017-09-03T10:17:00.722Z,64.90
2017-09-03T10:19:28.994Z,63.30
2017-09-03T10:21:58.059Z,60.10
2017-09-03T10:24:26.284Z,58.00
2017-09-03T10:26:54.517Z,54.80
2017-09-03T10:29:22.778Z,54.60
2017-09-03T10:31:51.019Z,54.70
2017-09-03T10:34:19.288Z,54.30
2017-09-03T10:36:47.546Z,55.90
2017-09-03T10:39:15.794Z,54.10
2017-09-03T10:41:44.116Z,54.20
2017-09-03T10:44:12.354Z,54.30
2017-09-03T10:46:40.637Z,51.40
2017-09-03T10:49:08.923Z,51.00
2017-09-03T10:51:37.220Z,49.90
2017-09-03T10:54:05.468Z,50.20
2017-09-03T10:56:33.754Z,50.40
2017-09-03T10:59:02.016Z,50.20
2017-09-03T11:01:30.313Z,50.00
2017-09-03T11:03:58.555Z,50.00
2017-09-03T11:06:26.873Z,49.70
2017-09-03T11:08:55.133Z,51.20
2017-09-03T11:11:23.405Z,49.90
2017-09-03T11:13:51.665Z,51.30
2017-09-03T11:16:19.914Z,49.50
2017-09-03T11:18:48.224Z,50.60
2017-09-03T11:21:16.448Z,52.70
2017-09-03T11:23:44.715Z,50.90
2017-09-03T11:26:12.966Z,50.60
2017-09-03T11:28:41.282Z,50.30
2017-09-03T11:31:09.792Z,50.60
2017-09-03T11:33:38.063Z,51.30
2017-09-03T11:36:06.320Z,52.70
2017-09-03T11:38:34.571Z,53.20
2017-09-03T11:41:02.838Z,54.60
2017-09-03T11:43:31.694Z,52.60
2017-09-03T11:45:59.961Z,52.20
2017-09-03T11:48:29.228Z,52.70
2017-09-03T11:50:57.465Z,53.80
2017-09-03T11:53:25.891Z,51.70
2017-09-03T11:55:54.140Z,50.40
2017-09-03T11:58:22.426Z,50.20
2017-09-03T12:00:50.661Z,51.40
2017-09-03T12:03:18.926Z,52.40
2017-09-03T12:05:47.195Z,50.40
2017-09-03T12:08:15.435Z,49.80
2017-09-03T12:10:44.016Z,50.30
2017-09-03T12:13:12.279Z,52.60
2017-09-03T12:15:41.444Z,52.50
2017-09-03T12:18:09.716Z,50.70
2017-09-03T12:20:38.074Z,51.30
2017-09-03T12:23:06.317Z,50.80
2017-09-03T12:25:35.644Z,52.40
2017-09-03T12:28:03.855Z,52.30
2017-09-03T12:30:32.163Z,50.60
2017-09-03T12:33:00.422Z,52.10
2017-09-03T12:35:28.729Z,50.60
2017-09-03T12:37:57.011Z,49.50
2017-09-03T12:40:25.257Z,49.60
2017-09-03T12:42:53.543Z,49.90
2017-09-03T12:45:21.806Z,49.10
2017-09-03T12:47:50.119Z,48.60
2017-09-03T12:50:18.403Z,48.10
2017-09-03T12:52:46.681Z,48.20
2017-09-03T12:55:14.920Z,48.90
2017-09-03T12:57:43.197Z,48.00
2017-09-03T13:00:11.429Z,50.20
2017-09-03T13:02:39.683Z,48.70
2017-09-03T13:05:07.992Z,49.50
2017-09-03T13:07:36.273Z,48.70
2017-09-03T13:10:04.490Z,48.40
2017-09-03T13:12:32.755Z,49.80
2017-09-03T13:15:00.999Z,49.80
2017-09-03T13:17:29.404Z,49.50
2017-09-03T13:19:57.635Z,49.40
2017-09-03T13:22:26.213Z,49.80
2017-09-03T13:24:54.483Z,50.10
2017-09-03T13:27:22.735Z,49.60
2017-09-03T13:29:51.036Z,49.70
2017-09-03T13:32:19.264Z,50.00
2017-09-03T13:34:48.326Z,48.90
2017-09-03T13:37:16.561Z,48.90
2017-09-03T13:39:44.819Z,48.80
2017-09-03T13:42:13.797Z,48.60
2017-09-03T13:44:42.049Z,49.20
2017-09-03T13:47:10.281Z,49.10
2017-09-03T13:49:38.559Z,48.50
2017-09-03T13:52:06.808Z,48.30
2017-09-03T13:54:35.056Z,49.30
2017-09-03T13:57:03.314Z,47.70
2017-09-03T13:59:31.551Z,48.00
2017-09-03T14:01:59.868Z,48.00
2017-09-03T14:04:28.134Z,49.40
2017-09-03T14:06:56.374Z,48.20
2017-09-03T14:09:24.629Z,49.20
2017-09-03T14:11:52.877Z,48.20
2017-09-03T14:14:21.117Z,48.90
2017-09-03T14:16:49.456Z,49.20
2017-09-03T14:19:17.687Z,50.00
2017-09-03T14:21:46.008Z,48.10
2017-09-03T14:24:14.597Z,49.30
2017-09-03T14:26:42.819Z,47.30
2017-09-03T14:29:11.084Z,47.60
2017-09-03T14:31:39.330Z,46.90
2017-09-03T14:34:08.380Z,47.40
2017-09-03T14:36:37.573Z,47.40
2017-09-03T14:39:05.815Z,49.00
2017-09-03T14:41:34.186Z,49.90
2017-09-03T14:44:03.385Z,47.50
2017-09-03T14:46:31.663Z,47.70
2017-09-03T14:48:59.999Z,48.40
2017-09-03T14:51:28.301Z,50.90
2017-09-03T14:53:57.527Z,52.90
2017-09-03T14:56:25.776Z,52.50
2017-09-03T14:58:54.055Z,51.60
2017-09-03T15:01:22.338Z,52.70
2017-09-03T15:03:50.610Z,53.60
2017-09-03T15:06:18.905Z,54.60
2017-09-03T15:08:47.130Z,53.90
2017-09-03T15:11:15.380Z,53.10
2017-09-03T15:13:43.620Z,53.70
2017-09-03T15:16:11.919Z,53.80
2017-09-03T15:18:40.182Z,53.40
2017-09-03T15:21:08.424Z,54.30
2017-09-03T15:23:36.722Z,54.80
2017-09-03T15:26:04.994Z,55.10
2017-09-03T15:28:33.256Z,56.10
2017-09-03T15:31:01.523Z,56.60
2017-09-03T15:33:29.758Z,57.00
2017-09-03T15:35:58.121Z,56.60
2017-09-03T15:38:26.348Z,57.00
2017-09-03T15:40:54.612Z,57.10
2017-09-03T15:43:22.889Z,57.60
2017-09-03T15:45:51.157Z,57.30
2017-09-03T15:48:19.432Z,58.00
2017-09-03T15:50:47.732Z,58.20
2017-09-03T15:53:16.032Z,58.80
2017-09-03T15:55:44.313Z,57.60
2017-09-03T15:58:12.553Z,58.50
2017-09-03T16:00:40.845Z,58.70
2017-09-03T16:03:09.397Z,58.70
2017-09-03T16:05:37.646Z,59.10
2017-09-03T16:08:06.011Z,59.70
2017-09-03T16:10:34.293Z,59.90
2017-09-03T16:13:03.487Z,59.70
2017-09-03T16:15:31.721Z,59.30
2017-09-03T16:17:59.974Z,59.60
2017-09-03T16:20:28.349Z,59.10
2017-09-03T16:22:56.650Z,59.90
2017-09-03T16:25:24.915Z,59.20
2017-09-03T16:27:53.179Z,59.50
2017-09-03T16:30:22.271Z,58.70
2017-09-03T16:32:51.451Z,59.30
2017-09-03T16:35:19.727Z,59.60
2017-09-03T16:37:48.023Z,60.80
2017-09-03T16:40:16.268Z,58.60
2017-09-03T16:42:44.736Z,59.10
2017-09-03T16:45:13.032Z,60.20
2017-09-03T16:47:41.292Z,60.30
2017-09-03T16:50:09.575Z,59.70
2017-09-03T16:52:37.905Z,61.20
2017-09-03T16:55:06.301Z,62.80
2017-09-03T16:57:34.572Z,62.80
2017-09-03T17:00:02.885Z,63.10
2017-09-03T17:02:31.191Z,62.60
2017-09-03T17:04:59.590Z,63.70
2017-09-03T17:07:27.917Z,62.70
2017-09-03T17:09:56.341Z,61.80
2017-09-03T17:12:24.594Z,63.20
2017-09-03T17:14:52.923Z,63.90
2017-09-03T17:17:21.453Z,64.90
2017-09-03T17:19:50.562Z,63.30
2017-09-03T17:22:18.882Z,63.50
2017-09-03T17:24:47.191Z,64.80
2017-09-03T17:27:15.459Z,65.20
2017-09-03T17:29:43.753Z,67.30
2017-09-03T17:32:12.381Z,66.30
2017-09-03T17:37:58.174Z,66.40
2017-09-03T17:40:27.103Z,66.90
2017-09-03T17:43:06.975Z,67.70
2017-09-03T17:45:36.240Z,67.70
2017-09-03T17:48:04.515Z,67.80
2017-09-03T17:50:32.776Z,68.40
2017-09-03T17:53:01.136Z,68.70
2017-09-03T17:55:29.376Z,68.30
2017-09-03T17:57:57.664Z,67.70
2017-09-03T18:00:25.903Z,68.90
2017-09-03T18:02:56.918Z,70.00
2017-09-03T18:05:25.196Z,70.30
2017-09-03T18:07:53.449Z,70.80
2017-09-03T18:10:21.721Z,72.10
2017-09-03T18:12:50.070Z,71.40
2017-09-03T18:15:18.327Z,71.40
2017-09-03T18:17:46.587Z,71.70
2017-09-03T18:20:14.841Z,71.00
2017-09-03T18:22:43.629Z,70.20
2017-09-03T18:25:12.776Z,71.10
2017-09-03T18:27:41.046Z,68.80
2017-09-03T18:30:09.386Z,69.90
2017-09-03T18:32:37.934Z,70.50
2017-09-03T18:35:06.346Z,70.10
2017-09-03T18:37:37.508Z,69.80
2017-09-03T18:40:08.448Z,70.30
2017-09-03T18:45:43.895Z,71.40
2017-09-03T18:48:12.441Z,70.70
2017-09-03T18:50:41.618Z,71.80
2017-09-03T18:53:22.188Z,74.00
2017-09-03T18:55:50.528Z,74.00
2017-09-03T18:58:22.625Z,74.00
2017-09-03T19:00:51.121Z,74.00
2017-09-03T19:03:22.081Z,74.20
2017-09-03T19:05:52.730Z,75.00
2017-09-03T19:08:21.761Z,75.10
2017-09-03T19:10:51.875Z,75.50
2017-09-03T19:13:20.676Z,75.70
2017-09-03T19:15:54.111Z,75.70
2017-09-03T19:18:23.407Z,75.80
2017-09-03T19:20:52.199Z,75.70
2017-09-03T19:23:20.535Z,75.20
2017-09-03T19:25:49.149Z,75.00
2017-09-03T19:28:17.853Z,75.00
2017-09-03T19:30:47.532Z,75.50
2017-09-03T19:33:16.177Z,75.90
2017-09-03T19:35:44.509Z,75.70
2017-09-03T19:38:15.663Z,75.90
2017-09-03T19:40:44.190Z,76.30
2017-09-03T19:43:12.502Z,76.90
2017-09-03T19:45:40.965Z,76.90
2017-09-03T19:48:09.760Z,77.10
2017-09-03T19:50:38.047Z,77.10
2017-09-03T19:53:06.398Z,77.10
2017-09-03T19:55:35.401Z,77.50
2017-09-03T19:58:03.687Z,77.90
2017-09-03T20:00:32.015Z,78.00
2017-09-03T20:03:00.377Z,78.50
2017-09-03T20:05:28.730Z,78.40
2017-09-03T20:07:57.109Z,78.90
2017-09-03T20:10:25.494Z,79.40
2017-09-03T20:12:53.838Z,80.00
2017-09-03T20:15:22.138Z,80.50
2017-09-03T20:17:50.416Z,80.70
2017-09-03T20:20:18.672Z,81.20
2017-09-03T20:22:46.919Z,81.20
2017-09-03T20:25:15.220Z,80.70
2017-09-03T20:27:43.477Z,80.70
2017-09-03T20:30:11.766Z,80.80
2017-09-03T20:32:40.055Z,80.90
2017-09-03T20:35:08.351Z,80.70
2017-09-03T20:37:36.621Z,81.50
2017-09-03T20:40:04.881Z,82.00
2017-09-03T20:42:33.174Z,82.50
2017-09-03T20:45:01.422Z,82.70
2017-09-03T20:47:29.715Z,82.80
2017-09-03T20:49:57.993Z,83.30
2017-09-03T20:52:26.239Z,83.80
2017-09-03T20:54:54.502Z,83.50
2017-09-03T20:57:22.778Z,84.20
2017-09-03T20:59:51.036Z,83.50
2017-09-03T21:02:19.351Z,83.50
2017-09-03T21:04:47.633Z,83.00
2017-09-03T21:07:15.994Z,82.90
2017-09-03T21:09:44.236Z,83.00
2017-09-03T21:12:12.510Z,82.90
2017-09-03T21:14:40.755Z,82.80
2017-09-03T21:17:09.299Z,82.50
2017-09-03T21:19:37.524Z,82.70
2017-09-03T21:22:05.803Z,82.70
2017-09-03T21:24:34.049Z,82.80
2017-09-03T21:27:02.337Z,82.70
2017-09-03T21:29:30.627Z,83.00
2017-09-03T21:31:59.632Z,82.90
2017-09-03T21:34:27.908Z,82.80
2017-09-03T21:36:56.272Z,82.90
2017-09-03T21:39:24.534Z,82.90
2017-09-03T21:41:52.790Z,83.20
2017-09-03T21:44:21.073Z,83.40
2017-09-03T21:46:49.338Z,83.20
2017-09-03T21:49:17.619Z,83.10
2017-09-03T21:51:45.882Z,83.10
2017-09-03T21:54:14.130Z,83.30
2017-09-03T21:56:42.397Z,83.30
2017-09-03T21:59:11.101Z,83.40
2017-09-03T22:01:39.307Z,83.30
2017-09-03T22:04:07.600Z,83.30
2017-09-03T22:06:35.826Z,83.10
2017-09-03T22:09:04.085Z,83.10
2017-09-03T22:11:32.354Z,83.40
2017-09-03T22:14:00.623Z,83.30
2017-09-03T22:16:28.879Z,83.20
2017-09-03T22:18:57.146Z,82.90
2017-09-03T22:21:25.395Z,83.20
2017-09-03T22:23:53.637Z,83.20
2017-09-03T22:26:21.884Z,83.60
2017-09-03T22:28:50.106Z,83.60
2017-09-03T22:31:18.372Z,83.60
2017-09-03T22:33:46.608Z,83.60
2017-09-03T22:36:14.850Z,83.50
2017-09-03T22:38:43.097Z,83.70
2017-09-03T22:41:11.326Z,83.60
2017-09-03T22:43:39.598Z,83.40
2017-09-03T22:46:07.834Z,83.40
2017-09-03T22:48:36.869Z,83.50
2017-09-03T22:51:05.126Z,83.50
2017-09-03T22:53:33.434Z,84.00
2017-09-03T22:56:01.658Z,83.50
2017-09-03T22:58:29.976Z,83.30
2017-09-03T23:00:58.254Z,83.10
2017-09-03T23:03:26.521Z,83.40
2017-09-03T23:05:54.813Z,83.70
2017-09-03T23:08:23.094Z,83.50
2017-09-03T23:10:51.349Z,83.30
2017-09-03T23:13:19.599Z,83.40
2017-09-03T23:15:47.907Z,83.50
2017-09-03T23:18:16.142Z,83.10
2017-09-03T23:20:44.394Z,83.10
2017-09-03T23:23:12.651Z,82.90
2017-09-03T23:25:40.902Z,83.00
2017-09-03T23:28:09.153Z,83.20
2017-09-03T23:30:37.385Z,83.50
2017-09-03T23:33:05.647Z,83.00
2017-09-03T23:35:33.879Z,83.40
2017-09-03T23:38:02.148Z,83.40
2017-09-03T23:40:30.378Z,83.20
2017-09-03T23:42:58.611Z,82.70
2017-09-03T23:45:26.991Z,82.90
2017-09-03T23:47:55.215Z,83.00
2017-09-03T23:50:23.469Z,82.80
2017-09-03T23:52:51.730Z,83.80
2017-09-03T23:55:19.977Z,83.20
2017-09-03T23:57:48.220Z,83.10
